sensor_id;sensor_type;location;lat;lon;timestamp;pressure;altitude;pressure_sealevel;temperature;humidity
78210;BME280;67485;48.816;9.930;2023-02-11T00:01:46;98826.88;;;-4.28;80.94
78210;BME280;67485;48.816;9.930;2023-02-11T00:04:12;98834.19;;;-4.48;80.90
78210;BME280;67485;48.816;9.930;2023-02-11T00:06:37;98820.09;;;-4.41;81.71
78210;BME280;67485;48.816;9.930;2023-02-11T00:09:04;98809.69;;;-4.44;82.00
78210;BME280;67485;48.816;9.930;2023-02-11T00:11:29;98810.56;;;-4.44;82.38
78210;BME280;67485;48.816;9.930;2023-02-11T00:14:00;98812.72;;;-4.36;82.94
78210;BME280;67485;48.816;9.930;2023-02-11T00:16:27;98810.44;;;-4.18;82.72
78210;BME280;67485;48.816;9.930;2023-02-11T00:18:53;98817.03;;;-4.09;82.54
78210;BME280;67485;48.816;9.930;2023-02-11T00:21:24;98825.72;;;-4.07;81.97
78210;BME280;67485;48.816;9.930;2023-02-11T00:23:51;98823.31;;;-4.03;81.33
78210;BME280;67485;48.816;9.930;2023-02-11T00:26:19;98819.81;;;-4.05;81.04
78210;BME280;67485;48.816;9.930;2023-02-11T00:28:47;98811.03;;;-4.09;80.66
78210;BME280;67485;48.816;9.930;2023-02-11T00:31:14;98805.63;;;-4.14;80.47
78210;BME280;67485;48.816;9.930;2023-02-11T00:33:40;98807.38;;;-4.13;79.99
78210;BME280;67485;48.816;9.930;2023-02-11T00:36:13;98799.09;;;-4.09;80.08
78210;BME280;67485;48.816;9.930;2023-02-11T00:38:41;98791.50;;;-4.07;80.84
78210;BME280;67485;48.816;9.930;2023-02-11T00:41:07;98787.28;;;-4.07;79.71
78210;BME280;67485;48.816;9.930;2023-02-11T00:43:34;98788.25;;;-4.04;79.85
78210;BME280;67485;48.816;9.930;2023-02-11T00:45:59;98794.19;;;-4.05;79.62
78210;BME280;67485;48.816;9.930;2023-02-11T00:48:25;98793.50;;;-4.03;79.86
78210;BME280;67485;48.816;9.930;2023-02-11T00:50:51;98786.50;;;-4.19;80.26
78210;BME280;67485;48.816;9.930;2023-02-11T00:53:17;98787.38;;;-4.18;80.16
78210;BME280;67485;48.816;9.930;2023-02-11T00:55:43;98775.88;;;-4.25;80.92
78210;BME280;67485;48.816;9.930;2023-02-11T00:58:08;98781.56;;;-4.16;80.43
78210;BME280;67485;48.816;9.930;2023-02-11T01:00:34;98776.97;;;-4.21;80.33
78210;BME280;67485;48.816;9.930;2023-02-11T01:03:00;98773.50;;;-4.22;80.15
78210;BME280;67485;48.816;9.930;2023-02-11T01:05:25;98781.88;;;-4.25;79.81
78210;BME280;67485;48.816;9.930;2023-02-11T01:07:51;98778.34;;;-4.27;79.83
78210;BME280;67485;48.816;9.930;2023-02-11T01:10:17;98770.94;;;-4.22;80.09
78210;BME280;67485;48.816;9.930;2023-02-11T01:12:42;98764.25;;;-4.20;80.64
78210;BME280;67485;48.816;9.930;2023-02-11T01:15:10;98755.00;;;-4.31;81.27
78210;BME280;67485;48.816;9.930;2023-02-11T01:17:36;98747.94;;;-4.35;81.00
78210;BME280;67485;48.816;9.930;2023-02-11T01:20:07;98743.22;;;-4.29;80.98
78210;BME280;67485;48.816;9.930;2023-02-11T01:22:36;98740.75;;;-4.28;80.27
78210;BME280;67485;48.816;9.930;2023-02-11T01:25:05;98731.28;;;-4.42;80.25
78210;BME280;67485;48.816;9.930;2023-02-11T01:27:31;98730.22;;;-4.46;80.67
78210;BME280;67485;48.816;9.930;2023-02-11T01:29:57;98730.03;;;-4.49;80.88
78210;BME280;67485;48.816;9.930;2023-02-11T01:32:22;98720.66;;;-4.48;80.63
78210;BME280;67485;48.816;9.930;2023-02-11T01:34:48;98722.97;;;-4.53;80.08
78210;BME280;67485;48.816;9.930;2023-02-11T01:37:14;98719.41;;;-4.55;80.74
78210;BME280;67485;48.816;9.930;2023-02-11T01:39:39;98712.13;;;-4.49;81.00
78210;BME280;67485;48.816;9.930;2023-02-11T01:42:05;98715.47;;;-4.63;80.91
78210;BME280;67485;48.816;9.930;2023-02-11T01:44:34;98707.91;;;-4.62;80.80
78210;BME280;67485;48.816;9.930;2023-02-11T01:47:00;98721.78;;;-4.72;81.20
78210;BME280;67485;48.816;9.930;2023-02-11T01:49:56;98725.31;;;-4.69;81.95
78210;BME280;67485;48.816;9.930;2023-02-11T01:52:31;98723.75;;;-4.67;81.42
78210;BME280;67485;48.816;9.930;2023-02-11T01:55:02;98727.78;;;-4.71;82.04
78210;BME280;67485;48.816;9.930;2023-02-11T01:57:52;98732.03;;;-4.72;81.92
78210;BME280;67485;48.816;9.930;2023-02-11T02:00:35;98732.03;;;-4.72;82.57
78210;BME280;67485;48.816;9.930;2023-02-11T02:03:09;98732.03;;;-4.72;81.66
78210;BME280;67485;48.816;9.930;2023-02-11T02:05:53;98736.03;;;-5.02;81.61
78210;BME280;67485;48.816;9.930;2023-02-11T02:10:51;98727.41;;;-5.43;83.11
78210;BME280;67485;48.816;9.930;2023-02-11T02:13:23;98737.41;;;-5.46;83.61
78210;BME280;67485;48.816;9.930;2023-02-11T02:15:57;98733.88;;;-5.48;84.77
78210;BME280;67485;48.816;9.930;2023-02-11T02:26:32;98726.72;;;-4.88;85.54
78210;BME280;67485;48.816;9.930;2023-02-11T02:37:11;98702.81;;;-4.33;83.59
78210;BME280;67485;48.816;9.930;2023-02-11T02:39:44;98703.63;;;-4.34;82.98
78210;BME280;67485;48.816;9.930;2023-02-11T02:42:11;98699.69;;;-4.29;82.51
78210;BME280;67485;48.816;9.930;2023-02-11T02:44:37;98697.13;;;-4.29;82.50
78210;BME280;67485;48.816;9.930;2023-02-11T02:47:03;98690.22;;;-4.30;82.60
78210;BME280;67485;48.816;9.930;2023-02-11T02:49:28;98685.28;;;-4.27;82.04
78210;BME280;67485;48.816;9.930;2023-02-11T02:52:14;98676.25;;;-4.35;82.51
78210;BME280;67485;48.816;9.930;2023-02-11T03:00:24;98668.66;;;-4.34;81.76
78210;BME280;67485;48.816;9.930;2023-02-11T03:03:16;98674.34;;;-4.25;81.21
78210;BME280;67485;48.816;9.930;2023-02-11T03:06:01;98683.88;;;-4.22;81.41
78210;BME280;67485;48.816;9.930;2023-02-11T03:11:04;98671.69;;;-4.26;81.25
78210;BME280;67485;48.816;9.930;2023-02-11T03:13:35;98662.69;;;-4.19;81.12
78210;BME280;67485;48.816;9.930;2023-02-11T03:16:07;98665.44;;;-4.03;81.59
78210;BME280;67485;48.816;9.930;2023-02-11T03:18:36;98653.06;;;-3.95;81.35
78210;BME280;67485;48.816;9.930;2023-02-11T03:21:04;98654.84;;;-3.94;80.75
78210;BME280;67485;48.816;9.930;2023-02-11T03:23:38;98652.84;;;-4.13;81.39
78210;BME280;67485;48.816;9.930;2023-02-11T03:34:39;98664.34;;;-4.07;82.01
78210;BME280;67485;48.816;9.930;2023-02-11T03:39:43;98671.09;;;-4.22;83.74
78210;BME280;67485;48.816;9.930;2023-02-11T03:42:11;98688.44;;;-4.31;83.38
78210;BME280;67485;48.816;9.930;2023-02-11T03:44:43;98692.38;;;-4.23;83.78
78210;BME280;67485;48.816;9.930;2023-02-11T03:47:11;98689.38;;;-4.16;83.74
78210;BME280;67485;48.816;9.930;2023-02-11T03:49:40;98689.75;;;-4.10;84.08
78210;BME280;67485;48.816;9.930;2023-02-11T03:52:08;98691.81;;;-4.04;83.39
78210;BME280;67485;48.816;9.930;2023-02-11T03:54:37;98690.00;;;-3.92;83.15
78210;BME280;67485;48.816;9.930;2023-02-11T03:57:04;98687.38;;;-3.78;82.83
78210;BME280;67485;48.816;9.930;2023-02-11T03:59:30;98696.91;;;-3.76;82.49
78210;BME280;67485;48.816;9.930;2023-02-11T04:01:55;98698.69;;;-3.75;83.28
78210;BME280;67485;48.816;9.930;2023-02-11T04:04:23;98697.41;;;-3.96;84.02
78210;BME280;67485;48.816;9.930;2023-02-11T04:06:49;98699.88;;;-3.98;85.10
78210;BME280;67485;48.816;9.930;2023-02-11T04:09:15;98687.44;;;-3.92;85.59
78210;BME280;67485;48.816;9.930;2023-02-11T04:11:40;98686.50;;;-3.79;85.16
78210;BME280;67485;48.816;9.930;2023-02-11T04:14:06;98692.97;;;-3.70;85.13
78210;BME280;67485;48.816;9.930;2023-02-11T04:16:31;98689.50;;;-3.71;84.54
78210;BME280;67485;48.816;9.930;2023-02-11T04:18:57;98680.25;;;-3.69;83.94
78210;BME280;67485;48.816;9.930;2023-02-11T04:21:23;98679.28;;;-3.56;83.44
78210;BME280;67485;48.816;9.930;2023-02-11T04:23:48;98679.47;;;-3.53;82.99
78210;BME280;67485;48.816;9.930;2023-02-11T04:26:14;98678.31;;;-3.43;83.02
78210;BME280;67485;48.816;9.930;2023-02-11T04:28:40;98686.13;;;-3.42;82.94
78210;BME280;67485;48.816;9.930;2023-02-11T04:31:05;98680.38;;;-3.37;82.98
78210;BME280;67485;48.816;9.930;2023-02-11T04:33:31;98679.50;;;-3.23;82.05
78210;BME280;67485;48.816;9.930;2023-02-11T04:35:57;98679.22;;;-3.13;81.80
78210;BME280;67485;48.816;9.930;2023-02-11T04:38:22;98683.28;;;-3.01;81.68
78210;BME280;67485;48.816;9.930;2023-02-11T04:40:49;98685.22;;;-2.97;81.86
78210;BME280;67485;48.816;9.930;2023-02-11T04:43:14;98679.81;;;-3.02;81.49
78210;BME280;67485;48.816;9.930;2023-02-11T04:45:40;98681.41;;;-3.04;81.33
78210;BME280;67485;48.816;9.930;2023-02-11T04:48:06;98672.22;;;-3.00;81.48
78210;BME280;67485;48.816;9.930;2023-02-11T04:50:31;98668.22;;;-2.95;81.41
78210;BME280;67485;48.816;9.930;2023-02-11T04:52:57;98673.59;;;-2.90;81.04
78210;BME280;67485;48.816;9.930;2023-02-11T04:55:23;98673.50;;;-2.92;80.88
78210;BME280;67485;48.816;9.930;2023-02-11T04:57:48;98665.03;;;-2.91;81.35
78210;BME280;67485;48.816;9.930;2023-02-11T05:00:15;98659.25;;;-2.87;81.32
78210;BME280;67485;48.816;9.930;2023-02-11T05:02:40;98662.81;;;-2.85;81.58
78210;BME280;67485;48.816;9.930;2023-02-11T05:05:06;98655.09;;;-2.85;81.86
78210;BME280;67485;48.816;9.930;2023-02-11T05:07:32;98650.13;;;-2.82;81.56
78210;BME280;67485;48.816;9.930;2023-02-11T05:09:58;98662.34;;;-2.78;81.83
78210;BME280;67485;48.816;9.930;2023-02-11T05:12:23;98649.69;;;-2.74;81.76
78210;BME280;67485;48.816;9.930;2023-02-11T05:14:49;98644.72;;;-2.71;82.21
78210;BME280;67485;48.816;9.930;2023-02-11T05:17:15;98642.97;;;-2.72;81.88
78210;BME280;67485;48.816;9.930;2023-02-11T05:19:41;98638.81;;;-2.70;82.65
78210;BME280;67485;48.816;9.930;2023-02-11T05:22:07;98642.50;;;-2.65;82.33
78210;BME280;67485;48.816;9.930;2023-02-11T05:24:33;98630.47;;;-2.66;81.71
78210;BME280;67485;48.816;9.930;2023-02-11T05:26:59;98636.56;;;-2.64;82.38
78210;BME280;67485;48.816;9.930;2023-02-11T05:29:24;98626.19;;;-2.66;82.02
78210;BME280;67485;48.816;9.930;2023-02-11T05:31:50;98626.91;;;-2.68;82.50
78210;BME280;67485;48.816;9.930;2023-02-11T05:34:16;98624.69;;;-2.62;82.13
78210;BME280;67485;48.816;9.930;2023-02-11T05:36:42;98628.22;;;-2.60;82.97
78210;BME280;67485;48.816;9.930;2023-02-11T05:39:08;98630.22;;;-2.54;82.37
78210;BME280;67485;48.816;9.930;2023-02-11T05:41:33;98623.56;;;-2.51;82.84
78210;BME280;67485;48.816;9.930;2023-02-11T05:43:59;98619.75;;;-2.42;82.59
78210;BME280;67485;48.816;9.930;2023-02-11T05:46:25;98630.28;;;-2.38;81.94
78210;BME280;67485;48.816;9.930;2023-02-11T05:48:50;98629.56;;;-2.35;81.29
78210;BME280;67485;48.816;9.930;2023-02-11T05:51:16;98640.06;;;-2.31;81.11
78210;BME280;67485;48.816;9.930;2023-02-11T05:53:42;98638.88;;;-2.21;81.31
78210;BME280;67485;48.816;9.930;2023-02-11T05:56:07;98636.16;;;-2.24;81.76
78210;BME280;67485;48.816;9.930;2023-02-11T05:58:35;98629.16;;;-2.26;82.78
78210;BME280;67485;48.816;9.930;2023-02-11T06:01:00;98613.09;;;-2.22;82.74
78210;BME280;67485;48.816;9.930;2023-02-11T06:03:26;98618.16;;;-2.24;82.66
78210;BME280;67485;48.816;9.930;2023-02-11T06:05:51;98621.34;;;-2.28;82.78
78210;BME280;67485;48.816;9.930;2023-02-11T06:08:17;98603.56;;;-2.25;82.39
78210;BME280;67485;48.816;9.930;2023-02-11T06:10:44;98610.69;;;-2.19;82.43
78210;BME280;67485;48.816;9.930;2023-02-11T06:13:10;98616.06;;;-2.15;82.54
78210;BME280;67485;48.816;9.930;2023-02-11T06:15:35;98626.81;;;-2.22;83.02
78210;BME280;67485;48.816;9.930;2023-02-11T06:18:01;98641.56;;;-2.34;83.62
78210;BME280;67485;48.816;9.930;2023-02-11T06:20:27;98648.31;;;-2.36;83.77
78210;BME280;67485;48.816;9.930;2023-02-11T06:22:52;98642.72;;;-2.29;83.58
78210;BME280;67485;48.816;9.930;2023-02-11T06:25:18;98632.84;;;-2.21;83.08
78210;BME280;67485;48.816;9.930;2023-02-11T06:27:44;98637.41;;;-2.16;82.94
78210;BME280;67485;48.816;9.930;2023-02-11T06:30:10;98640.63;;;-2.20;82.74
78210;BME280;67485;48.816;9.930;2023-02-11T06:32:35;98628.84;;;-2.16;82.95
78210;BME280;67485;48.816;9.930;2023-02-11T06:35:01;98631.31;;;-2.01;82.52
78210;BME280;67485;48.816;9.930;2023-02-11T06:37:27;98631.53;;;-1.97;82.65
78210;BME280;67485;48.816;9.930;2023-02-11T06:39:53;98634.75;;;-2.01;83.13
78210;BME280;67485;48.816;9.930;2023-02-11T06:42:18;98634.69;;;-2.02;83.69
78210;BME280;67485;48.816;9.930;2023-02-11T06:44:44;98636.41;;;-2.03;83.71
78210;BME280;67485;48.816;9.930;2023-02-11T06:47:10;98651.72;;;-2.04;83.88
78210;BME280;67485;48.816;9.930;2023-02-11T06:49:36;98644.31;;;-1.98;84.56
78210;BME280;67485;48.816;9.930;2023-02-11T06:52:01;98636.84;;;-1.93;84.00
78210;BME280;67485;48.816;9.930;2023-02-11T06:54:27;98637.09;;;-1.89;84.14
78210;BME280;67485;48.816;9.930;2023-02-11T06:56:53;98653.31;;;-1.90;83.29
78210;BME280;67485;48.816;9.930;2023-02-11T06:59:19;98645.63;;;-1.90;82.46
78210;BME280;67485;48.816;9.930;2023-02-11T07:01:45;98646.81;;;-1.83;83.00
78210;BME280;67485;48.816;9.930;2023-02-11T07:04:11;98650.16;;;-1.84;82.78
78210;BME280;67485;48.816;9.930;2023-02-11T07:06:39;98644.16;;;-1.85;82.32
78210;BME280;67485;48.816;9.930;2023-02-11T07:09:05;98625.69;;;-1.77;82.95
78210;BME280;67485;48.816;9.930;2023-02-11T07:11:31;98627.03;;;-1.68;83.29
78210;BME280;67485;48.816;9.930;2023-02-11T07:14:03;98630.41;;;-1.69;83.35
78210;BME280;67485;48.816;9.930;2023-02-11T07:16:29;98626.13;;;-1.68;82.42
78210;BME280;67485;48.816;9.930;2023-02-11T07:18:55;98626.88;;;-1.71;82.17
78210;BME280;67485;48.816;9.930;2023-02-11T07:21:22;98628.06;;;-1.64;82.71
78210;BME280;67485;48.816;9.930;2023-02-11T07:23:49;98626.75;;;-1.56;82.45
78210;BME280;67485;48.816;9.930;2023-02-11T07:26:18;98628.03;;;-1.48;82.00
78210;BME280;67485;48.816;9.930;2023-02-11T07:28:44;98628.19;;;-1.44;81.52
78210;BME280;67485;48.816;9.930;2023-02-11T07:31:13;98631.13;;;-1.37;82.19
78210;BME280;67485;48.816;9.930;2023-02-11T07:33:39;98627.81;;;-1.34;81.85
78210;BME280;67485;48.816;9.930;2023-02-11T07:36:06;98627.81;;;-1.34;81.29
78210;BME280;67485;48.816;9.930;2023-02-11T07:38:33;98630.56;;;-1.31;81.30
78210;BME280;67485;48.816;9.930;2023-02-11T07:41:04;98641.09;;;-1.26;81.79
78210;BME280;67485;48.816;9.930;2023-02-11T07:43:30;98634.59;;;-1.18;81.33
78210;BME280;67485;48.816;9.930;2023-02-11T07:45:56;98634.16;;;-1.09;81.78
78210;BME280;67485;48.816;9.930;2023-02-11T07:48:22;98635.78;;;-1.11;81.76
78210;BME280;67485;48.816;9.930;2023-02-11T07:50:47;98631.59;;;-1.09;82.10
78210;BME280;67485;48.816;9.930;2023-02-11T07:53:13;98628.81;;;-0.96;81.45
78210;BME280;67485;48.816;9.930;2023-02-11T07:55:39;98640.22;;;-0.91;80.76
78210;BME280;67485;48.816;9.930;2023-02-11T07:58:04;98633.06;;;-0.78;79.98
78210;BME280;67485;48.816;9.930;2023-02-11T08:00:30;98633.66;;;-0.66;80.12
78210;BME280;67485;48.816;9.930;2023-02-11T08:02:56;98632.31;;;-0.58;79.96
78210;BME280;67485;48.816;9.930;2023-02-11T08:05:22;98632.59;;;-0.52;79.49
78210;BME280;67485;48.816;9.930;2023-02-11T08:07:52;98625.31;;;-0.42;79.41
78210;BME280;67485;48.816;9.930;2023-02-11T08:10:18;98621.00;;;-0.24;79.00
78210;BME280;67485;48.816;9.930;2023-02-11T08:12:43;98622.25;;;-0.14;78.49
78210;BME280;67485;48.816;9.930;2023-02-11T08:15:09;98631.16;;;-0.07;77.55
78210;BME280;67485;48.816;9.930;2023-02-11T08:17:36;98642.06;;;-0.13;77.63
78210;BME280;67485;48.816;9.930;2023-02-11T08:20:03;98638.47;;;-0.17;77.29
78210;BME280;67485;48.816;9.930;2023-02-11T08:22:33;98650.13;;;-0.25;76.58
78210;BME280;67485;48.816;9.930;2023-02-11T08:24:59;98651.00;;;-0.24;76.71
78210;BME280;67485;48.816;9.930;2023-02-11T08:27:26;98645.28;;;-0.19;76.64
78210;BME280;67485;48.816;9.930;2023-02-11T08:29:53;98637.13;;;-0.08;76.38
78210;BME280;67485;48.816;9.930;2023-02-11T08:32:18;98640.09;;;0.01;76.62
78210;BME280;67485;48.816;9.930;2023-02-11T08:34:44;98637.94;;;0.10;76.64
78210;BME280;67485;48.816;9.930;2023-02-11T08:37:10;98639.91;;;0.16;76.44
78210;BME280;67485;48.816;9.930;2023-02-11T08:39:36;98646.06;;;0.20;76.05
78210;BME280;67485;48.816;9.930;2023-02-11T08:42:02;98646.50;;;0.29;75.71
78210;BME280;67485;48.816;9.930;2023-02-11T08:44:28;98644.03;;;0.32;74.76
78210;BME280;67485;48.816;9.930;2023-02-11T08:46:54;98638.19;;;0.36;75.04
78210;BME280;67485;48.816;9.930;2023-02-11T08:49:20;98635.75;;;0.39;74.85
78210;BME280;67485;48.816;9.930;2023-02-11T08:51:46;98628.69;;;0.56;74.10
78210;BME280;67485;48.816;9.930;2023-02-11T08:54:12;98636.03;;;0.67;74.09
78210;BME280;67485;48.816;9.930;2023-02-11T08:56:38;98628.84;;;0.80;73.63
78210;BME280;67485;48.816;9.930;2023-02-11T08:59:04;98623.38;;;0.94;73.13
78210;BME280;67485;48.816;9.930;2023-02-11T09:01:31;98625.03;;;1.15;71.89
78210;BME280;67485;48.816;9.930;2023-02-11T09:03:57;98625.06;;;1.60;70.81
78210;BME280;67485;48.816;9.930;2023-02-11T09:06:24;98618.50;;;1.68;70.40
78210;BME280;67485;48.816;9.930;2023-02-11T09:08:53;98620.72;;;1.82;70.36
78210;BME280;67485;48.816;9.930;2023-02-11T09:11:23;98616.00;;;2.44;67.76
78210;BME280;67485;48.816;9.930;2023-02-11T09:13:49;98608.03;;;2.38;67.99
78210;BME280;67485;48.816;9.930;2023-02-11T09:16:18;98600.03;;;2.56;68.09
78210;BME280;67485;48.816;9.930;2023-02-11T09:18:45;98597.28;;;2.77;67.66
78210;BME280;67485;48.816;9.930;2023-02-11T09:21:11;98604.47;;;2.60;67.15
78210;BME280;67485;48.816;9.930;2023-02-11T09:23:37;98602.81;;;2.62;68.06
78210;BME280;67485;48.816;9.930;2023-02-11T09:26:25;98589.25;;;2.69;67.87
78210;BME280;67485;48.816;9.930;2023-02-11T09:28:51;98592.47;;;2.62;68.22
78210;BME280;67485;48.816;9.930;2023-02-11T09:31:20;98591.69;;;2.65;67.98
78210;BME280;67485;48.816;9.930;2023-02-11T09:33:47;98601.94;;;2.89;67.73
78210;BME280;67485;48.816;9.930;2023-02-11T09:36:19;98593.16;;;2.84;67.91
78210;BME280;67485;48.816;9.930;2023-02-11T09:38:46;98589.53;;;2.79;67.42
78210;BME280;67485;48.816;9.930;2023-02-11T09:44:34;98604.28;;;3.07;66.24
78210;BME280;67485;48.816;9.930;2023-02-11T09:47:04;98604.91;;;3.56;65.10
78210;BME280;67485;48.816;9.930;2023-02-11T09:49:38;98606.84;;;3.94;63.40
78210;BME280;67485;48.816;9.930;2023-02-11T09:54:59;98606.16;;;5.78;58.30
78210;BME280;67485;48.816;9.930;2023-02-11T09:57:30;98613.44;;;5.53;57.11
78210;BME280;67485;48.816;9.930;2023-02-11T09:59:56;98619.44;;;5.12;59.70
78210;BME280;67485;48.816;9.930;2023-02-11T10:02:28;98629.47;;;5.33;57.67
78210;BME280;67485;48.816;9.930;2023-02-11T10:05:29;98621.59;;;5.68;57.39
78210;BME280;67485;48.816;9.930;2023-02-11T10:08:07;98621.06;;;6.26;56.49
78210;BME280;67485;48.816;9.930;2023-02-11T10:10:58;98630.25;;;6.53;54.93
78210;BME280;67485;48.816;9.930;2023-02-11T10:17:02;98630.50;;;5.03;58.31
78210;BME280;67485;48.816;9.930;2023-02-11T10:22:11;98627.47;;;4.86;58.95
78210;BME280;67485;48.816;9.930;2023-02-11T10:24:41;98634.97;;;4.74;60.45
78210;BME280;67485;48.816;9.930;2023-02-11T10:27:19;98641.31;;;4.52;59.81
78210;BME280;67485;48.816;9.930;2023-02-11T10:29:48;98640.44;;;4.51;60.54
78210;BME280;67485;48.816;9.930;2023-02-11T10:34:48;98625.50;;;7.33;52.84
78210;BME280;67485;48.816;9.930;2023-02-11T10:37:15;98615.28;;;8.98;49.13
78210;BME280;67485;48.816;9.930;2023-02-11T10:39:41;98613.22;;;9.78;46.78
78210;BME280;67485;48.816;9.930;2023-02-11T10:42:10;98603.84;;;10.34;45.33
78210;BME280;67485;48.816;9.930;2023-02-11T10:47:23;98592.59;;;10.91;43.61
78210;BME280;67485;48.816;9.930;2023-02-11T10:49:49;98583.84;;;11.00;43.50
78210;BME280;67485;48.816;9.930;2023-02-11T10:52:24;98582.06;;;11.33;42.85
78210;BME280;67485;48.816;9.930;2023-02-11T10:57:35;98589.09;;;8.91;47.33
78210;BME280;67485;48.816;9.930;2023-02-11T11:00:06;98582.75;;;8.66;49.24
78210;BME280;67485;48.816;9.930;2023-02-11T11:02:44;98588.06;;;8.74;48.86
78210;BME280;67485;48.816;9.930;2023-02-11T11:05:17;98584.63;;;8.80;48.91
78210;BME280;67485;48.816;9.930;2023-02-11T11:07:56;98579.56;;;9.00;48.72
78210;BME280;67485;48.816;9.930;2023-02-11T11:12:58;98573.47;;;9.01;48.48
78210;BME280;67485;48.816;9.930;2023-02-11T11:15:26;98570.94;;;9.13;48.71
78210;BME280;67485;48.816;9.930;2023-02-11T11:18:17;98557.59;;;10.41;46.74
78210;BME280;67485;48.816;9.930;2023-02-11T11:20:57;98553.19;;;11.36;45.34
78210;BME280;67485;48.816;9.930;2023-02-11T11:23:24;98554.88;;;11.68;43.91
78210;BME280;67485;48.816;9.930;2023-02-11T11:26:11;98551.50;;;10.93;45.50
78210;BME280;67485;48.816;9.930;2023-02-11T11:28:59;98554.09;;;11.16;44.82
78210;BME280;67485;48.816;9.930;2023-02-11T11:31:32;98556.63;;;11.67;44.30
78210;BME280;67485;48.816;9.930;2023-02-11T11:34:00;98555.22;;;12.72;42.17
78210;BME280;67485;48.816;9.930;2023-02-11T11:36:34;98540.06;;;13.04;42.19
78210;BME280;67485;48.816;9.930;2023-02-11T11:39:14;98543.41;;;13.21;41.25
78210;BME280;67485;48.816;9.930;2023-02-11T11:42:03;98542.34;;;13.39;40.67
78210;BME280;67485;48.816;9.930;2023-02-11T11:44:34;98543.00;;;13.65;40.82
78210;BME280;67485;48.816;9.930;2023-02-11T11:48:11;98544.16;;;13.37;41.32
78210;BME280;67485;48.816;9.930;2023-02-11T11:50:19;98531.63;;;13.61;40.44
78210;BME280;67485;48.816;9.930;2023-02-11T11:53:04;98526.06;;;13.83;40.60
78210;BME280;67485;48.816;9.930;2023-02-11T11:55:44;98525.69;;;14.14;40.66
78210;BME280;67485;48.816;9.930;2023-02-11T11:58:17;98537.53;;;13.80;40.33
78210;BME280;67485;48.816;9.930;2023-02-11T12:06:59;98542.22;;;13.52;40.47
78210;BME280;67485;48.816;9.930;2023-02-11T12:09:45;98530.53;;;13.77;40.38
78210;BME280;67485;48.816;9.930;2023-02-11T12:12:23;98524.13;;;13.99;39.84
78210;BME280;67485;48.816;9.930;2023-02-11T12:39:49;98537.47;;;11.19;46.93
78210;BME280;67485;48.816;9.930;2023-02-11T12:45:19;98531.31;;;10.21;49.59
78210;BME280;67485;48.816;9.930;2023-02-11T12:56:38;98527.56;;;9.52;52.74
78210;BME280;67485;48.816;9.930;2023-02-11T12:59:13;98536.16;;;9.30;53.52
78210;BME280;67485;48.816;9.930;2023-02-11T13:01:42;98534.38;;;9.21;53.58
78210;BME280;67485;48.816;9.930;2023-02-11T13:04:28;98532.66;;;9.21;53.52
78210;BME280;67485;48.816;9.930;2023-02-11T13:07:28;98538.56;;;8.94;55.14
78210;BME280;67485;48.816;9.930;2023-02-11T13:10:10;98533.28;;;8.88;55.10
78210;BME280;67485;48.816;9.930;2023-02-11T13:12:45;98518.31;;;8.67;55.54
78210;BME280;67485;48.816;9.930;2023-02-11T13:15:32;98521.66;;;8.50;55.96
78210;BME280;67485;48.816;9.930;2023-02-11T13:17:59;98519.06;;;8.55;55.93
78210;BME280;67485;48.816;9.930;2023-02-11T13:29:19;98511.91;;;8.38;57.03
78210;BME280;67485;48.816;9.930;2023-02-11T13:32:11;98510.31;;;8.48;56.55
78210;BME280;67485;48.816;9.930;2023-02-11T13:37:19;98509.97;;;9.23;55.54
78210;BME280;67485;48.816;9.930;2023-02-11T13:40:06;98500.31;;;9.15;55.09
78210;BME280;67485;48.816;9.930;2023-02-11T13:42:53;98495.94;;;9.12;54.64
78210;BME280;67485;48.816;9.930;2023-02-11T13:48:00;98495.78;;;8.87;55.99
78210;BME280;67485;48.816;9.930;2023-02-11T13:50:27;98503.47;;;8.63;56.38
78210;BME280;67485;48.816;9.930;2023-02-11T13:53:01;98504.34;;;8.65;56.53
78210;BME280;67485;48.816;9.930;2023-02-11T13:55:28;98501.59;;;8.51;56.43
78210;BME280;67485;48.816;9.930;2023-02-11T14:19:45;98498.25;;;7.78;58.84
78210;BME280;67485;48.816;9.930;2023-02-11T14:30:18;98499.31;;;7.94;59.36
78210;BME280;67485;48.816;9.930;2023-02-11T14:33:02;98498.47;;;7.97;59.49
78210;BME280;67485;48.816;9.930;2023-02-11T14:35:38;98491.56;;;8.05;59.62
78210;BME280;67485;48.816;9.930;2023-02-11T14:41:19;98499.38;;;8.05;57.98
78210;BME280;67485;48.816;9.930;2023-02-11T14:43:59;98501.09;;;8.00;57.71
78210;BME280;67485;48.816;9.930;2023-02-11T14:46:27;98507.84;;;7.81;58.39
78210;BME280;67485;48.816;9.930;2023-02-11T14:48:59;98502.34;;;7.57;58.88
78210;BME280;67485;48.816;9.930;2023-02-11T14:51:37;98506.00;;;7.72;59.44
78210;BME280;67485;48.816;9.930;2023-02-11T14:56:39;98516.28;;;7.58;59.36
78210;BME280;67485;48.816;9.930;2023-02-11T14:59:18;98512.66;;;7.45;60.01
78210;BME280;67485;48.816;9.930;2023-02-11T15:01:48;98510.06;;;7.50;59.85
78210;BME280;67485;48.816;9.930;2023-02-11T15:04:26;98509.97;;;7.42;60.00
78210;BME280;67485;48.816;9.930;2023-02-11T15:06:53;98512.50;;;7.34;61.04
78210;BME280;67485;48.816;9.930;2023-02-11T15:09:22;98508.81;;;7.20;60.76
78210;BME280;67485;48.816;9.930;2023-02-11T15:11:52;98513.81;;;7.04;61.24
78210;BME280;67485;48.816;9.930;2023-02-11T15:14:32;98523.28;;;6.97;62.03
78210;BME280;67485;48.816;9.930;2023-02-11T15:17:01;98538.94;;;6.97;62.09
78210;BME280;67485;48.816;9.930;2023-02-11T15:19:38;98533.63;;;6.91;63.08
78210;BME280;67485;48.816;9.930;2023-02-11T15:22:17;98538.75;;;6.88;62.92
78210;BME280;67485;48.816;9.930;2023-02-11T15:24:57;98529.91;;;6.77;62.79
78210;BME280;67485;48.816;9.930;2023-02-11T15:27:23;98533.34;;;6.76;62.67
78210;BME280;67485;48.816;9.930;2023-02-11T15:29:50;98535.97;;;6.76;63.01
78210;BME280;67485;48.816;9.930;2023-02-11T15:32:24;98528.09;;;6.73;63.50
78210;BME280;67485;48.816;9.930;2023-02-11T15:34:52;98538.47;;;6.70;63.59
78210;BME280;67485;48.816;9.930;2023-02-11T15:37:24;98533.16;;;6.63;64.07
78210;BME280;67485;48.816;9.930;2023-02-11T15:39:51;98533.84;;;6.53;64.04
78210;BME280;67485;48.816;9.930;2023-02-11T15:42:29;98541.63;;;6.50;64.65
78210;BME280;67485;48.816;9.930;2023-02-11T15:47:41;98546.72;;;6.44;64.67
78210;BME280;67485;48.816;9.930;2023-02-11T15:50:20;98550.16;;;6.40;64.56
78210;BME280;67485;48.816;9.930;2023-02-11T15:52:47;98560.50;;;6.37;65.31